Time;durP1;ratioP1;P1;durP2;ratioP2;P2;SDS_P1;SDS_P2;PMS_P1;PMS_P2;Temp;Humidity;BMP_temperature;BMP_pressure;BME280_temperature;BME280_humidity;BME280_pressure;Samples;Min_cycle;Max_cycle;Signal;HPM_P1;HPM_P2
2024/01/27 00:00:24;;;;;;;9.10;4.38;;;6.10;1.00;;;;;;5030815;28;20799;-75
2024/01/27 00:02:51;;;;;;;14.13;4.05;;;6.20;1.00;;;;;;5033802;28;20239;-74
2024/01/27 00:05:18;;;;;;;12.77;4.10;;;6.20;1.00;;;;;;5035759;28;20249;-74
2024/01/27 00:07:45;;;;;;;13.98;3.80;;;6.10;1.00;;;;;;5038358;28;20377;-74
2024/01/27 00:10:12;;;;;;;13.00;4.63;;;6.20;1.00;;;;;;5034010;28;20332;-74
2024/01/27 00:12:41;;;;;;;15.05;4.05;;;6.20;1.00;;;;;;5043860;28;20261;-74
2024/01/27 00:15:09;;;;;;;8.98;3.83;;;6.10;1.00;;;;;;5032225;28;20245;-75
2024/01/27 00:17:36;;;;;;;11.60;3.55;;;6.10;1.00;;;;;;5046651;28;20274;-74
2024/01/27 00:20:03;;;;;;;7.68;3.97;;;6.10;1.00;;;;;;5047183;28;20289;-75
2024/01/27 00:22:30;;;;;;;9.50;3.50;;;6.00;1.00;;;;;;5027407;28;20325;-75
2024/01/27 00:24:57;;;;;;;9.55;4.18;;;6.00;1.00;;;;;;5039373;28;20329;-72
2024/01/27 00:27:23;;;;;;;14.88;4.25;;;6.00;1.00;;;;;;5028375;28;20640;-71
2024/01/27 00:29:52;;;;;;;13.52;4.38;;;5.90;1.00;;;;;;5039387;28;20263;-70
2024/01/27 00:32:20;;;;;;;11.93;4.18;;;5.90;1.00;;;;;;5038897;28;20272;-70
2024/01/27 00:34:47;;;;;;;14.32;3.83;;;5.80;1.00;;;;;;5035384;28;20364;-76
2024/01/27 00:37:14;;;;;;;14.88;4.47;;;5.80;1.00;;;;;;5039191;28;20805;-73
2024/01/27 00:39:41;;;;;;;14.00;3.60;;;5.80;1.00;;;;;;5053353;28;20238;-73
2024/01/27 00:42:08;;;;;;;9.88;3.72;;;5.70;1.00;;;;;;5032613;28;20249;-71
2024/01/27 00:44:36;;;;;;;15.93;4.22;;;5.70;1.00;;;;;;5051617;28;20242;-71
2024/01/27 00:47:05;;;;;;;9.32;3.47;;;5.70;1.00;;;;;;5049417;28;21026;-73
2024/01/27 00:49:32;;;;;;;10.77;3.45;;;5.70;1.00;;;;;;5035324;28;20716;-72
2024/01/27 00:51:59;;;;;;;8.43;3.30;;;5.70;1.00;;;;;;5036634;28;20249;-71
2024/01/27 00:54:26;;;;;;;15.60;4.05;;;5.70;1.00;;;;;;5038649;28;20285;-72
2024/01/27 00:56:54;;;;;;;7.90;3.50;;;5.70;1.00;;;;;;5044530;28;20233;-71
2024/01/27 00:59:21;;;;;;;13.15;3.40;;;5.70;1.00;;;;;;5048828;28;20238;-71
2024/01/27 01:01:48;;;;;;;13.20;3.85;;;5.70;1.00;;;;;;5036033;28;20372;-71
2024/01/27 01:04:16;;;;;;;13.25;4.80;;;5.80;1.00;;;;;;5037942;28;20782;-71
2024/01/27 01:06:43;;;;;;;10.95;3.20;;;5.80;1.00;;;;;;5047681;28;20242;-72
2024/01/27 01:09:11;;;;;;;22.85;5.18;;;5.80;1.00;;;;;;5049929;28;20333;-71
2024/01/27 01:11:38;;;;;;;12.10;3.45;;;5.90;1.00;;;;;;5043475;28;20675;-73
2024/01/27 01:14:05;;;;;;;9.50;3.35;;;5.80;1.00;;;;;;5029386;28;20690;-70
2024/01/27 01:16:32;;;;;;;10.00;3.70;;;5.80;1.00;;;;;;5031752;28;20924;-70
2024/01/27 01:18:59;;;;;;;10.57;3.47;;;5.80;1.00;;;;;;5041936;28;20299;-71
2024/01/27 01:21:28;;;;;;;11.43;3.13;;;5.90;1.00;;;;;;5049396;28;20234;-71
2024/01/27 01:23:55;;;;;;;6.93;3.33;;;5.90;1.00;;;;;;5049994;28;20243;-71
2024/01/27 01:26:22;;;;;;;12.88;4.25;;;6.00;1.00;;;;;;5047390;28;20466;-71
2024/01/27 01:28:49;;;;;;;14.63;3.88;;;6.00;1.00;;;;;;5050975;28;20329;-70
2024/01/27 01:31:18;;;;;;;11.38;4.00;;;5.90;1.00;;;;;;5050083;28;20317;-74
2024/01/27 01:33:45;;;;;;;13.25;3.70;;;5.90;1.00;;;;;;5046282;28;20318;-73
2024/01/27 01:36:12;;;;;;;10.52;3.67;;;5.90;1.00;;;;;;5040028;28;20315;-70
2024/01/27 01:38:40;;;;;;;16.13;4.95;;;5.80;1.00;;;;;;5046627;28;20336;-72
2024/01/27 01:41:07;;;;;;;18.60;4.70;;;5.70;1.00;;;;;;5046007;28;20284;-72
2024/01/27 01:43:34;;;;;;;12.38;3.67;;;5.80;1.00;;;;;;5049670;28;20241;-70
2024/01/27 01:46:01;;;;;;;6.03;3.33;;;5.70;1.00;;;;;;5050774;28;20333;-70
2024/01/27 01:48:29;;;;;;;11.20;3.40;;;5.70;1.00;;;;;;5047477;28;20243;-70
2024/01/27 01:50:56;;;;;;;12.00;4.43;;;5.70;1.00;;;;;;5050055;28;20347;-70
2024/01/27 01:53:24;;;;;;;17.80;3.55;;;5.70;1.00;;;;;;5048403;28;20321;-71
2024/01/27 01:55:53;;;;;;;8.05;2.90;;;5.70;1.00;;;;;;5048707;28;20447;-70
2024/01/27 01:58:20;;;;;;;11.27;4.03;;;5.70;1.00;;;;;;5049301;28;20246;-70
2024/01/27 02:00:47;;;;;;;13.77;3.90;;;5.70;1.00;;;;;;5046480;28;20237;-72
2024/01/27 02:03:14;;;;;;;12.60;3.38;;;5.70;1.00;;;;;;5046350;28;20334;-70
2024/01/27 02:05:41;;;;;;;14.15;5.10;;;5.70;1.00;;;;;;5048857;28;20886;-69
2024/01/27 02:08:08;;;;;;;14.32;3.65;;;5.70;1.00;;;;;;5047077;28;20326;-71
2024/01/27 02:10:37;;;;;;;13.50;3.28;;;5.60;1.00;;;;;;5042788;28;20245;-72
2024/01/27 02:13:17;;;;;;;15.30;4.05;;;5.60;1.00;;;;;;5028869;28;20324;-72
2024/01/27 02:15:44;;;;;;;16.17;4.32;;;5.70;1.00;;;;;;5026760;28;20332;-71
2024/01/27 02:18:11;;;;;;;8.73;3.83;;;5.70;1.00;;;;;;5035869;28;20964;-75
2024/01/27 02:20:38;;;;;;;15.60;4.82;;;5.80;1.00;;;;;;5031684;28;20246;-70
2024/01/27 02:23:05;;;;;;;10.45;3.67;;;5.90;1.00;;;;;;5030399;28;20379;-74
2024/01/27 02:25:34;;;;;;;11.95;4.25;;;5.90;1.00;;;;;;5040739;28;20270;-70
2024/01/27 02:28:03;;;;;;;13.15;3.47;;;5.90;1.00;;;;;;5038776;28;20247;-75
2024/01/27 02:30:30;;;;;;;17.30;4.03;;;6.00;1.00;;;;;;5043464;28;20240;-78
2024/01/27 02:32:58;;;;;;;12.82;3.50;;;6.00;1.00;;;;;;5035428;28;20334;-70
2024/01/27 02:35:25;;;;;;;13.18;4.30;;;6.00;1.00;;;;;;5035468;28;20249;-71
2024/01/27 02:37:52;;;;;;;13.65;3.95;;;6.00;1.00;;;;;;5041257;28;20334;-71
2024/01/27 02:40:19;;;;;;;15.23;4.53;;;6.00;1.00;;;;;;5046931;28;20789;-71
2024/01/27 02:42:47;;;;;;;13.13;4.28;;;6.00;1.00;;;;;;5033337;28;20266;-70
2024/01/27 02:45:14;;;;;;;12.50;3.80;;;6.00;1.00;;;;;;5039427;28;20892;-70
2024/01/27 02:47:41;;;;;;;17.55;5.47;;;6.00;1.00;;;;;;5048045;28;20272;-71
2024/01/27 02:50:09;;;;;;;17.67;5.53;;;6.00;1.00;;;;;;5039446;28;20313;-73
2024/01/27 02:52:36;;;;;;;9.82;3.67;;;6.00;1.00;;;;;;5037340;28;20295;-72
2024/01/27 02:55:03;;;;;;;9.23;4.03;;;6.00;1.00;;;;;;5027969;28;20286;-72
2024/01/27 02:57:30;;;;;;;18.48;3.33;;;5.90;1.00;;;;;;5041531;28;20333;-72
2024/01/27 02:59:59;;;;;;;13.97;4.33;;;5.90;1.00;;;;;;5025646;28;20713;-70
2024/01/27 03:02:26;;;;;;;16.30;4.45;;;5.90;1.00;;;;;;5041642;28;21111;-72
2024/01/27 03:04:53;;;;;;;13.00;4.45;;;5.90;1.00;;;;;;5042720;28;20737;-70
2024/01/27 03:07:20;;;;;;;11.80;4.88;;;6.00;1.00;;;;;;5045259;28;20245;-71
2024/01/27 03:09:46;;;;;;;8.77;3.90;;;5.90;1.00;;;;;;5046148;28;20332;-70
2024/01/27 03:12:15;;;;;;;16.30;3.35;;;6.00;1.00;;;;;;5046486;28;20288;-70
2024/01/27 03:14:42;;;;;;;11.85;4.60;;;5.90;1.00;;;;;;5030413;28;21108;-71
2024/01/27 03:17:11;;;;;;;12.13;4.22;;;5.90;1.00;;;;;;5023053;28;20238;-71
2024/01/27 03:19:38;;;;;;;13.43;4.35;;;5.90;1.00;;;;;;5031749;28;20731;-71
2024/01/27 03:22:05;;;;;;;9.23;3.38;;;5.90;1.00;;;;;;5040046;28;20235;-72
2024/01/27 03:24:32;;;;;;;8.30;3.22;;;5.80;1.00;;;;;;5031002;28;20915;-73
2024/01/27 03:26:59;;;;;;;13.30;4.20;;;5.80;1.00;;;;;;5026235;28;20696;-73
2024/01/27 03:29:27;;;;;;;11.63;3.10;;;5.70;1.00;;;;;;5036883;28;20266;-71
2024/01/27 03:31:54;;;;;;;8.20;3.92;;;5.70;1.00;;;;;;5032576;28;20261;-69
2024/01/27 03:34:24;;;;;;;12.18;3.58;;;5.60;1.00;;;;;;5023054;28;20358;-69
2024/01/27 03:36:51;;;;;;;10.73;3.75;;;5.50;1.00;;;;;;5047033;28;20299;-71
2024/01/27 03:39:18;;;;;;;11.27;3.20;;;5.40;1.00;;;;;;5040441;28;20245;-71
2024/01/27 03:41:45;;;;;;;12.40;4.57;;;5.30;1.00;;;;;;5038467;28;20320;-72
2024/01/27 03:44:12;;;;;;;10.20;3.65;;;5.20;1.00;;;;;;5044023;28;20234;-70
2024/01/27 03:46:40;;;;;;;15.23;4.35;;;5.20;1.00;;;;;;5036776;28;20290;-71
2024/01/27 03:49:06;;;;;;;14.15;3.53;;;5.10;1.00;;;;;;5027689;28;20242;-73
2024/01/27 03:51:35;;;;;;;13.30;4.60;;;5.10;1.00;;;;;;5032481;28;20920;-70
2024/01/27 03:54:01;;;;;;;13.05;3.45;;;5.10;1.00;;;;;;5043453;28;21070;-69
2024/01/27 03:56:28;;;;;;;8.23;3.50;;;5.00;1.00;;;;;;5021701;28;20239;-70
2024/01/27 03:58:54;;;;;;;13.27;3.33;;;5.00;1.00;;;;;;5039620;28;20467;-70
2024/01/27 04:01:22;;;;;;;10.93;4.13;;;5.00;1.00;;;;;;5025279;28;20238;-70
2024/01/27 04:03:49;;;;;;;13.68;4.47;;;5.00;1.00;;;;;;5032252;28;20242;-77
2024/01/27 04:06:16;;;;;;;13.25;3.70;;;4.90;1.00;;;;;;5032252;28;20249;-76
2024/01/27 04:08:44;;;;;;;12.20;3.75;;;4.90;1.00;;;;;;5046964;28;21200;-76
2024/01/27 04:11:20;;;;;;;11.48;3.35;;;4.90;1.00;;;;;;5040715;28;20246;-76
2024/01/27 04:13:47;;;;;;;12.07;3.40;;;4.90;1.00;;;;;;5029490;28;20322;-74
2024/01/27 04:16:14;;;;;;;18.02;4.25;;;4.80;1.00;;;;;;5046594;28;20238;-75
2024/01/27 04:18:41;;;;;;;10.23;3.53;;;4.80;1.00;;;;;;5044600;28;20313;-75
2024/01/27 04:21:08;;;;;;;10.27;4.00;;;4.80;1.00;;;;;;5029044;28;20329;-75
2024/01/27 04:23:35;;;;;;;17.95;3.97;;;4.80;1.00;;;;;;5042786;28;20326;-74
2024/01/27 04:26:06;;;;;;;16.75;4.80;;;4.80;1.00;;;;;;5048740;28;20234;-75
2024/01/27 04:28:33;;;;;;;12.98;3.70;;;4.80;1.00;;;;;;5047436;28;20324;-76
2024/01/27 04:31:00;;;;;;;11.63;3.50;;;4.80;1.00;;;;;;5039353;28;20299;-74
2024/01/27 04:33:27;;;;;;;10.80;4.20;;;4.70;1.00;;;;;;5039460;28;20325;-75
2024/01/27 04:35:55;;;;;;;12.07;3.58;;;4.80;1.00;;;;;;5037074;28;20242;-75
2024/01/27 04:38:21;;;;;;;16.10;4.10;;;4.80;1.00;;;;;;5046336;28;20233;-75
2024/01/27 04:40:50;;;;;;;8.98;3.72;;;4.80;1.00;;;;;;5035021;28;20309;-75
2024/01/27 04:43:21;;;;;;;9.77;4.10;;;4.80;1.00;;;;;;5048352;28;20244;-75
2024/01/27 04:45:49;;;;;;;13.40;3.83;;;4.90;1.00;;;;;;5053125;28;20240;-76
2024/01/27 04:48:16;;;;;;;12.10;3.75;;;5.00;1.00;;;;;;5049101;28;20240;-74
2024/01/27 04:50:43;;;;;;;10.30;4.30;;;5.10;1.00;;;;;;5052696;28;20320;-74
2024/01/27 04:53:10;;;;;;;14.02;5.03;;;5.20;1.00;;;;;;5049482;28;20237;-73
2024/01/27 04:55:37;;;;;;;14.20;3.05;;;5.20;1.00;;;;;;5037817;28;21241;-74
2024/01/27 04:58:05;;;;;;;11.23;4.05;;;5.30;1.00;;;;;;5030815;28;20238;-75
2024/01/27 05:00:33;;;;;;;12.32;3.67;;;5.30;1.00;;;;;;5035355;28;20331;-75
2024/01/27 05:03:04;;;;;;;14.75;4.43;;;5.30;1.00;;;;;;5049035;28;20242;-75
2024/01/27 05:05:31;;;;;;;15.20;4.18;;;5.30;1.00;;;;;;5036755;28;20311;-76
2024/01/27 05:07:58;;;;;;;11.27;4.00;;;5.30;1.00;;;;;;5049784;28;20338;-74
2024/01/27 05:10:26;;;;;;;13.27;3.75;;;5.40;1.00;;;;;;5044964;28;20276;-76
2024/01/27 05:12:53;;;;;;;16.42;5.10;;;5.40;1.00;;;;;;5032499;28;20237;-75
2024/01/27 05:15:20;;;;;;;12.30;3.90;;;5.40;1.00;;;;;;5038719;28;20330;-76
2024/01/27 05:17:48;;;;;;;12.73;4.30;;;5.50;1.00;;;;;;5035991;28;20330;-76
2024/01/27 05:20:15;;;;;;;10.00;3.63;;;5.40;1.00;;;;;;5037085;28;20307;-76
2024/01/27 05:22:42;;;;;;;15.77;4.25;;;5.40;1.00;;;;;;5035810;28;20234;-76
2024/01/27 05:25:09;;;;;;;16.63;3.75;;;5.40;1.00;;;;;;5049154;28;20244;-75
2024/01/27 05:27:38;;;;;;;15.13;3.80;;;5.30;1.00;;;;;;5050075;28;20244;-75
2024/01/27 05:30:06;;;;;;;10.00;3.80;;;5.30;1.00;;;;;;5042075;28;20249;-75
2024/01/27 05:32:32;;;;;;;13.05;5.00;;;5.30;1.00;;;;;;5041309;28;20277;-76
2024/01/27 05:35:00;;;;;;;13.53;4.50;;;5.30;1.00;;;;;;5034321;28;20251;-76
2024/01/27 05:37:27;;;;;;;12.23;4.57;;;5.30;1.00;;;;;;5037878;28;20543;-73
2024/01/27 05:39:54;;;;;;;12.95;4.60;;;5.30;1.00;;;;;;5045969;28;20250;-76
2024/01/27 05:42:22;;;;;;;12.32;4.20;;;5.30;1.00;;;;;;5048479;28;20267;-75
2024/01/27 05:44:49;;;;;;;13.98;5.30;;;5.30;1.00;;;;;;5041829;28;20251;-76
2024/01/27 05:47:16;;;;;;;21.30;6.00;;;5.30;1.00;;;;;;5037433;28;20245;-75
2024/01/27 05:49:43;;;;;;;14.80;4.72;;;5.30;1.00;;;;;;5045767;28;20313;-74
2024/01/27 05:52:11;;;;;;;14.18;3.47;;;5.30;1.00;;;;;;5048531;28;20244;-76
2024/01/27 05:54:41;;;;;;;13.52;4.25;;;5.30;1.00;;;;;;5028516;28;20254;-76
2024/01/27 05:57:08;;;;;;;16.75;4.60;;;5.30;1.00;;;;;;5026772;28;20265;-76
2024/01/27 05:59:35;;;;;;;28.45;5.25;;;5.30;1.00;;;;;;5031581;28;20234;-75
2024/01/27 06:02:02;;;;;;;17.17;4.90;;;5.30;1.00;;;;;;5024445;28;20304;-75
2024/01/27 06:04:31;;;;;;;16.55;4.78;;;5.40;1.00;;;;;;5037035;28;20234;-75
2024/01/27 06:06:58;;;;;;;16.95;4.45;;;5.50;1.00;;;;;;5031523;28;20289;-74
2024/01/27 06:09:26;;;;;;;16.13;4.78;;;5.50;1.00;;;;;;5026372;28;20391;-76
2024/01/27 06:11:54;;;;;;;15.85;4.43;;;5.50;1.00;;;;;;5025514;28;20739;-76
2024/01/27 06:14:21;;;;;;;8.32;3.63;;;5.60;1.00;;;;;;5025689;28;20269;-76
2024/01/27 06:16:48;;;;;;;10.90;4.15;;;5.60;1.00;;;;;;5025121;28;20332;-77
2024/01/27 06:19:15;;;;;;;10.98;3.65;;;5.60;1.00;;;;;;5025317;28;20242;-75
2024/01/27 06:21:41;;;;;;;9.07;3.15;;;5.60;1.00;;;;;;5025799;28;20250;-77
2024/01/27 06:24:08;;;;;;;20.60;6.18;;;5.60;1.00;;;;;;5042000;28;20335;-75
2024/01/27 06:26:37;;;;;;;15.80;4.30;;;5.70;1.00;;;;;;5032955;28;20321;-73
2024/01/27 06:29:04;;;;;;;12.85;3.85;;;5.70;1.00;;;;;;5026457;28;20336;-73
2024/01/27 06:31:31;;;;;;;15.55;4.25;;;5.70;1.00;;;;;;5032236;28;20269;-74
2024/01/27 06:33:58;;;;;;;12.63;4.00;;;5.80;1.00;;;;;;5023107;28;20263;-74
2024/01/27 06:36:27;;;;;;;13.15;4.13;;;5.80;1.00;;;;;;5017222;28;20425;-73
2024/01/27 06:38:55;;;;;;;12.45;4.10;;;5.80;1.00;;;;;;5025825;28;20328;-74
2024/01/27 06:41:22;;;;;;;17.65;4.70;;;5.80;1.00;;;;;;5034102;28;20253;-74
2024/01/27 06:43:50;;;;;;;16.70;4.70;;;5.80;1.00;;;;;;5039941;28;20270;-73
2024/01/27 06:46:17;;;;;;;13.60;3.20;;;5.80;1.00;;;;;;5034494;28;20308;-74
2024/01/27 06:48:44;;;;;;;16.23;5.57;;;5.80;1.00;;;;;;5041192;28;20781;-74
2024/01/27 06:51:11;;;;;;;12.80;4.30;;;5.90;1.00;;;;;;5032434;28;20244;-75
2024/01/27 06:53:38;;;;;;;12.95;3.40;;;5.90;1.00;;;;;;5027509;28;21172;-74
2024/01/27 06:56:05;;;;;;;9.87;3.83;;;5.90;1.00;;;;;;5036737;28;20239;-73
2024/01/27 06:58:32;;;;;;;13.40;4.00;;;5.90;1.00;;;;;;5028685;28;20535;-73
2024/01/27 07:01:00;;;;;;;17.10;4.30;;;5.90;1.00;;;;;;5046671;28;20230;-75
2024/01/27 07:03:27;;;;;;;16.13;3.95;;;5.90;1.00;;;;;;5030552;28;20711;-76
2024/01/27 07:05:54;;;;;;;12.57;3.92;;;5.90;1.00;;;;;;5044356;28;20246;-74
2024/01/27 07:08:21;;;;;;;8.88;4.30;;;5.90;1.00;;;;;;5045670;28;20330;-75
2024/01/27 07:10:48;;;;;;;13.43;5.10;;;5.90;1.00;;;;;;5015708;28;20269;-74
2024/01/27 07:13:15;;;;;;;14.98;2.95;;;5.90;1.00;;;;;;5023122;28;20343;-75
2024/01/27 07:15:42;;;;;;;18.42;5.03;;;5.90;1.00;;;;;;5025401;28;20312;-76
2024/01/27 07:18:11;;;;;;;16.17;3.83;;;5.90;1.00;;;;;;5008454;28;20252;-74
2024/01/27 07:20:38;;;;;;;11.20;3.90;;;5.90;1.00;;;;;;5005729;28;20239;-74
2024/01/27 07:23:05;;;;;;;18.25;4.18;;;5.90;1.00;;;;;;5012573;28;20295;-74
2024/01/27 07:25:32;;;;;;;9.43;3.60;;;5.90;1.00;;;;;;5009191;28;20319;-75
2024/01/27 07:27:59;;;;;;;12.88;3.70;;;5.90;1.00;;;;;;5003177;28;20518;-75
2024/01/27 07:30:26;;;;;;;12.15;4.85;;;5.90;1.00;;;;;;5004748;28;20239;-76
2024/01/27 07:32:53;;;;;;;12.65;4.43;;;6.00;1.00;;;;;;5004994;28;20303;-74
2024/01/27 07:35:22;;;;;;;12.90;3.72;;;6.00;1.00;;;;;;5022477;28;20310;-74
2024/01/27 07:37:49;;;;;;;17.10;4.50;;;6.10;1.00;;;;;;5025865;28;20711;-74
2024/01/27 07:40:16;;;;;;;13.82;4.53;;;6.10;1.00;;;;;;5026245;28;20402;-75
2024/01/27 07:42:43;;;;;;;16.17;4.00;;;6.10;1.00;;;;;;5029200;28;21114;-75
2024/01/27 07:45:10;;;;;;;10.32;4.03;;;6.10;1.00;;;;;;5026546;28;20283;-73
2024/01/27 07:47:37;;;;;;;14.40;4.43;;;6.20;1.00;;;;;;5030829;28;20286;-76
2024/01/27 07:50:09;;;;;;;11.07;4.65;;;6.20;1.00;;;;;;5028923;28;20268;-76
2024/01/27 07:52:40;;;;;;;19.05;5.40;;;6.20;1.00;;;;;;5020874;28;20244;-76
2024/01/27 07:55:07;;;;;;;9.77;3.95;;;6.20;1.00;;;;;;5023886;28;20681;-75
2024/01/27 07:57:35;;;;;;;12.88;4.25;;;6.20;1.00;;;;;;5026411;28;20247;-75
2024/01/27 08:00:06;;;;;;;11.45;4.38;;;6.20;1.00;;;;;;5024605;28;20252;-76
2024/01/27 08:02:35;;;;;;;18.27;4.80;;;6.30;1.00;;;;;;5020844;28;20257;-74
2024/01/27 08:05:03;;;;;;;12.80;4.50;;;6.30;1.00;;;;;;5017205;28;21273;-75
2024/01/27 08:07:30;;;;;;;13.07;4.47;;;6.40;1.00;;;;;;5028239;28;20476;-76
2024/01/27 08:09:58;;;;;;;11.50;4.55;;;6.50;1.00;;;;;;5019951;28;20559;-76
2024/01/27 08:12:25;;;;;;;12.57;4.10;;;6.50;1.00;;;;;;5028181;28;20327;-76
2024/01/27 08:14:53;;;;;;;7.77;3.90;;;6.50;1.00;;;;;;5024940;28;20745;-76
2024/01/27 08:17:20;;;;;;;14.10;4.40;;;6.50;1.00;;;;;;5008343;28;20606;-76
2024/01/27 08:19:47;;;;;;;16.48;4.40;;;6.50;1.00;;;;;;5004920;28;20497;-73
2024/01/27 08:22:14;;;;;;;13.60;3.80;;;6.50;1.00;;;;;;5020595;28;20239;-76
2024/01/27 08:24:41;;;;;;;15.20;3.65;;;6.50;1.00;;;;;;5027240;28;21094;-75
2024/01/27 08:27:09;;;;;;;12.02;4.35;;;6.60;1.00;;;;;;5028007;28;20262;-75
2024/01/27 08:29:36;;;;;;;15.02;4.35;;;6.60;1.00;;;;;;5014549;28;20317;-75
2024/01/27 08:32:03;;;;;;;12.65;3.92;;;6.50;1.00;;;;;;4989759;28;20245;-76
2024/01/27 08:34:30;;;;;;;17.23;5.83;;;6.50;1.00;;;;;;5010617;28;20241;-74
2024/01/27 08:37:03;;;;;;;10.37;3.70;;;6.60;1.00;;;;;;5026635;28;20467;-74
2024/01/27 08:39:31;;;;;;;9.98;4.55;;;6.70;1.00;;;;;;5027274;28;20482;-73
2024/01/27 08:41:58;;;;;;;14.05;4.18;;;6.70;1.00;;;;;;5026278;28;20249;-74
2024/01/27 08:44:26;;;;;;;19.90;5.77;;;6.70;1.00;;;;;;5025439;28;20246;-76
2024/01/27 08:46:53;;;;;;;15.27;5.32;;;6.80;1.00;;;;;;5021727;28;20493;-77
2024/01/27 08:49:20;;;;;;;15.13;4.50;;;6.80;1.00;;;;;;5017215;28;20245;-74
2024/01/27 08:51:47;;;;;;;12.40;4.67;;;6.80;1.00;;;;;;5006455;28;20291;-77
2024/01/27 08:54:14;;;;;;;17.60;4.57;;;6.90;1.00;;;;;;5004813;28;20518;-75
2024/01/27 08:56:41;;;;;;;19.50;4.90;;;6.90;1.00;;;;;;5028293;28;20562;-76
2024/01/27 08:59:08;;;;;;;10.68;4.57;;;7.00;1.00;;;;;;5011828;28;20485;-75
2024/01/27 09:01:36;;;;;;;8.83;3.93;;;7.00;1.00;;;;;;5023326;28;20305;-74
2024/01/27 09:04:03;;;;;;;15.03;4.57;;;7.00;1.00;;;;;;5026000;28;20531;-77
2024/01/27 09:06:30;;;;;;;10.20;3.90;;;7.10;1.00;;;;;;5026211;28;20546;-77
2024/01/27 09:08:57;;;;;;;12.48;3.97;;;7.10;1.00;;;;;;5028600;28;20566;-76
2024/01/27 09:11:27;;;;;;;12.33;4.03;;;7.20;1.00;;;;;;5041424;28;20990;-76
2024/01/27 09:13:54;;;;;;;13.93;4.70;;;7.20;1.00;;;;;;5050643;28;20467;-76
2024/01/27 09:16:21;;;;;;;14.87;4.10;;;7.20;1.00;;;;;;5042581;28;21477;-75
2024/01/27 09:18:50;;;;;;;11.98;4.20;;;7.20;1.00;;;;;;5038748;28;20462;-76
2024/01/27 09:21:20;;;;;;;17.40;4.57;;;7.20;1.00;;;;;;5027997;28;20323;-77
2024/01/27 09:23:47;;;;;;;10.10;4.13;;;7.30;1.00;;;;;;5028883;28;20894;-73
2024/01/27 09:26:18;;;;;;;12.17;3.73;;;7.20;1.00;;;;;;5026313;28;20469;-78
2024/01/27 09:28:47;;;;;;;11.83;4.20;;;7.30;1.00;;;;;;5028285;28;20462;-76
2024/01/27 09:31:14;;;;;;;14.17;4.67;;;7.40;1.00;;;;;;5042114;28;20480;-77
2024/01/27 09:33:42;;;;;;;11.97;4.57;;;7.50;1.00;;;;;;5028627;28;21022;-77
2024/01/27 09:36:10;;;;;;;14.20;5.07;;;7.50;1.00;;;;;;5035885;28;20481;-76
2024/01/27 09:38:37;;;;;;;13.82;4.18;;;7.50;1.00;;;;;;5030599;28;20467;-75
2024/01/27 09:41:04;;;;;;;13.18;3.75;;;7.50;1.00;;;;;;5030056;28;20787;-75
2024/01/27 09:43:32;;;;;;;14.60;5.03;;;7.50;1.00;;;;;;5025690;28;20330;-76
2024/01/27 09:45:59;;;;;;;12.77;4.97;;;7.50;1.00;;;;;;5030175;28;20485;-76
2024/01/27 09:48:27;;;;;;;16.17;7.17;;;7.50;1.00;;;;;;5019914;28;20654;-75
2024/01/27 09:50:54;;;;;;;14.13;4.40;;;7.50;1.00;;;;;;5041130;28;20466;-75
2024/01/27 09:53:23;;;;;;;15.43;4.57;;;7.50;1.00;;;;;;5029354;28;20535;-77
2024/01/27 09:55:50;;;;;;;13.70;3.83;;;7.50;1.00;;;;;;5046495;28;20464;-76
2024/01/27 09:58:17;;;;;;;13.93;3.90;;;7.60;1.00;;;;;;5046045;28;20477;-74
2024/01/27 10:00:45;;;;;;;13.07;5.07;;;7.60;1.00;;;;;;5036371;28;20249;-75
2024/01/27 10:03:12;;;;;;;13.63;4.30;;;7.60;1.00;;;;;;5028148;28;20308;-74
2024/01/27 10:05:42;;;;;;;10.97;3.90;;;7.60;1.00;;;;;;5024788;28;20854;-76
2024/01/27 10:08:09;;;;;;;10.40;4.05;;;7.60;1.00;;;;;;5042559;28;20543;-74
2024/01/27 10:10:38;;;;;;;12.17;4.57;;;7.60;1.00;;;;;;5037201;28;20287;-74
2024/01/27 10:13:06;;;;;;;14.70;4.67;;;7.70;1.00;;;;;;5036265;28;20472;-72
2024/01/27 10:15:33;;;;;;;17.73;4.03;;;7.70;1.00;;;;;;5043582;28;20456;-76
2024/01/27 10:18:07;;;;;;;11.45;3.63;;;7.80;1.00;;;;;;5033065;28;20563;-74
2024/01/27 10:20:34;;;;;;;18.80;5.17;;;7.80;1.00;;;;;;5032750;28;20240;-75
2024/01/27 10:23:14;;;;;;;10.73;3.90;;;7.80;1.00;;;;;;5025059;28;21263;-75
2024/01/27 10:25:44;;;;;;;13.03;4.40;;;7.90;1.00;;;;;;5034611;28;20480;-74
2024/01/27 10:28:11;;;;;;;15.93;5.53;;;8.00;1.00;;;;;;5040180;28;20456;-74
2024/01/27 10:30:39;;;;;;;16.37;5.00;;;8.00;1.00;;;;;;5040523;28;20577;-73
2024/01/27 10:33:08;;;;;;;14.63;4.50;;;7.90;1.00;;;;;;5036202;28;20460;-75
2024/01/27 10:35:35;;;;;;;14.23;4.00;;;7.80;1.00;;;;;;5033636;28;20640;-74
2024/01/27 10:38:02;;;;;;;14.50;3.87;;;7.90;1.00;;;;;;5031086;28;20456;-75
2024/01/27 10:40:29;;;;;;;12.57;4.57;;;7.90;1.00;;;;;;5037763;28;20520;-75
2024/01/27 10:43:03;;;;;;;9.30;4.30;;;7.90;1.00;;;;;;5026642;28;20465;-73
2024/01/27 10:45:38;;;;;;;9.23;4.23;;;8.00;1.00;;;;;;5037138;28;20473;-74
2024/01/27 10:48:06;;;;;;;16.97;3.87;;;8.00;1.00;;;;;;5026556;28;20922;-72
2024/01/27 10:50:37;;;;;;;10.33;4.93;;;8.10;1.00;;;;;;5023453;28;20522;-74
2024/01/27 10:53:05;;;;;;;16.73;4.30;;;8.10;1.00;;;;;;5044647;28;20457;-74
2024/01/27 10:55:35;;;;;;;12.80;4.60;;;8.10;1.00;;;;;;5030828;28;20510;-74
2024/01/27 10:58:06;;;;;;;12.03;4.00;;;8.10;1.00;;;;;;5042042;28;20495;-75
2024/01/27 11:00:34;;;;;;;17.57;5.37;;;8.20;1.00;;;;;;5037243;28;20962;-77
2024/01/27 11:03:04;;;;;;;14.20;6.33;;;8.20;1.00;;;;;;5038647;28;20543;-74
2024/01/27 11:05:32;;;;;;;11.77;3.30;;;8.20;1.00;;;;;;5040458;28;20471;-72
2024/01/27 11:08:00;;;;;;;11.03;4.13;;;8.40;1.00;;;;;;5031533;28;20544;-75
2024/01/27 11:10:35;;;;;;;10.30;4.00;;;8.40;1.00;;;;;;5035735;28;20585;-74
2024/01/27 11:13:04;;;;;;;11.60;4.17;;;8.30;1.00;;;;;;5043520;28;21068;-72
2024/01/27 11:15:32;;;;;;;12.17;4.77;;;8.10;1.00;;;;;;5037029;28;21309;-72
2024/01/27 11:17:59;;;;;;;16.10;5.67;;;8.20;1.00;;;;;;5039828;28;21301;-72
2024/01/27 11:20:28;;;;;;;8.77;4.57;;;8.20;1.00;;;;;;5042009;28;20910;-72
2024/01/27 11:22:57;;;;;;;13.53;4.93;;;8.30;1.00;;;;;;5034119;28;20961;-73
2024/01/27 11:25:24;;;;;;;9.77;4.13;;;8.40;1.00;;;;;;5029869;28;20563;-71
2024/01/27 11:27:52;;;;;;;15.80;4.83;;;8.30;1.00;;;;;;5029526;28;20528;-72
2024/01/27 11:30:40;;;;;;;15.63;4.17;;;8.30;1.00;;;;;;5029319;28;21305;-71
2024/01/27 11:33:08;;;;;;;11.73;3.67;;;8.30;1.00;;;;;;5036635;28;20468;-76
2024/01/27 11:35:35;;;;;;;13.87;4.80;;;8.30;1.00;;;;;;5038677;28;20476;-75
2024/01/27 11:38:02;;;;;;;8.37;3.90;;;8.40;1.00;;;;;;5032384;28;20461;-75
2024/01/27 11:40:30;;;;;;;9.77;3.83;;;8.30;1.00;;;;;;5030195;28;22219;-75
2024/01/27 11:42:57;;;;;;;13.80;4.70;;;8.30;1.00;;;;;;5045260;28;21120;-75
2024/01/27 11:45:24;;;;;;;11.60;4.60;;;8.30;1.00;;;;;;5041157;28;20496;-74
2024/01/27 11:47:52;;;;;;;13.53;4.50;;;8.30;1.00;;;;;;5049039;28;20457;-74
2024/01/27 11:50:20;;;;;;;9.67;4.03;;;8.30;1.00;;;;;;5040454;28;21458;-74
2024/01/27 11:52:48;;;;;;;13.30;4.30;;;8.40;1.00;;;;;;5036770;28;20483;-73
2024/01/27 11:55:15;;;;;;;16.97;5.30;;;8.40;1.00;;;;;;5038788;28;21311;-75
2024/01/27 11:57:43;;;;;;;15.33;5.20;;;8.30;1.00;;;;;;5035474;28;20447;-74
2024/01/27 12:00:11;;;;;;;14.70;4.60;;;8.40;1.00;;;;;;5027756;28;20543;-74
2024/01/27 12:02:41;;;;;;;15.90;5.03;;;8.40;1.00;;;;;;5034537;28;20444;-75
2024/01/27 12:05:10;;;;;;;13.33;5.77;;;8.20;1.00;;;;;;5040530;28;20532;-73
2024/01/27 12:07:37;;;;;;;12.57;4.87;;;8.10;1.00;;;;;;5030670;28;20437;-74
2024/01/27 12:10:08;;;;;;;15.10;4.90;;;8.10;1.00;;;;;;5029285;28;20462;-75
2024/01/27 12:12:35;;;;;;;12.83;4.80;;;8.10;1.00;;;;;;5049032;28;20470;-74
2024/01/27 12:15:02;;;;;;;10.67;5.00;;;8.10;1.00;;;;;;5036659;28;20529;-73
2024/01/27 12:17:30;;;;;;;21.80;7.10;;;8.20;1.00;;;;;;5051409;28;20464;-75
2024/01/27 12:19:59;;;;;;;16.93;5.30;;;8.20;1.00;;;;;;5049219;28;20494;-73
2024/01/27 12:22:31;;;;;;;14.67;5.33;;;8.30;1.00;;;;;;5049689;28;20963;-72
2024/01/27 12:25:10;;;;;;;15.53;5.37;;;8.30;1.00;;;;;;5044723;28;20503;-73
2024/01/27 12:27:37;;;;;;;14.13;5.23;;;8.20;1.00;;;;;;5033872;28;20975;-72
2024/01/27 12:30:06;;;;;;;14.80;4.73;;;8.20;1.00;;;;;;5031752;28;20536;-71
2024/01/27 12:32:36;;;;;;;13.67;4.43;;;8.20;1.00;;;;;;5037504;28;20952;-74
2024/01/27 12:35:05;;;;;;;14.30;4.63;;;8.20;1.00;;;;;;5037606;28;21011;-73
2024/01/27 12:37:34;;;;;;;14.17;5.67;;;8.20;1.00;;;;;;5055215;28;20513;-74
2024/01/27 12:40:02;;;;;;;13.57;5.97;;;8.20;1.00;;;;;;5054011;28;20464;-72
2024/01/27 12:42:29;;;;;;;16.50;6.77;;;8.10;1.00;;;;;;5056345;28;21558;-79
2024/01/27 12:44:56;;;;;;;11.20;5.43;;;8.00;1.00;;;;;;5038826;28;20554;-73
2024/01/27 12:47:23;;;;;;;11.70;5.50;;;8.00;1.00;;;;;;5034865;28;20460;-72
2024/01/27 12:49:52;;;;;;;12.60;5.20;;;8.00;1.00;;;;;;5048912;28;20561;-73
2024/01/27 12:52:21;;;;;;;13.53;4.77;;;8.00;1.00;;;;;;5033911;28;20468;-74
2024/01/27 12:54:50;;;;;;;11.90;5.27;;;8.20;1.00;;;;;;5035679;28;20531;-76
2024/01/27 12:57:18;;;;;;;16.10;5.87;;;8.30;1.00;;;;;;5052277;28;20479;-74
2024/01/27 12:59:45;;;;;;;11.90;5.27;;;8.60;1.00;;;;;;5042444;28;20429;-73